createdAt,value
2018-07-28T00:02:20.620Z,79.65
2018-07-28T00:04:50.723Z,80.23
2018-07-28T00:07:20.761Z,80.19
2018-07-28T00:09:50.374Z,80.64
2018-07-28T00:12:23.700Z,79.62
2018-07-28T00:14:53.248Z,79.94
2018-07-28T00:17:23.361Z,80.61
2018-07-28T00:19:52.872Z,79.99
2018-07-28T00:22:23.209Z,79.91
2018-07-28T00:24:52.995Z,80.02
2018-07-28T00:27:22.624Z,79.96
2018-07-28T00:29:52.548Z,80.83
2018-07-28T00:32:22.550Z,80.53
2018-07-28T00:34:52.327Z,79.49
2018-07-28T00:37:22.193Z,79.14
2018-07-28T00:39:53.177Z,80.16
2018-07-28T00:42:23.501Z,79.05
2018-07-28T00:44:53.138Z,80.12
2018-07-28T00:47:23.334Z,79.77
2018-07-28T00:49:53.225Z,80.31
2018-07-28T00:52:23.141Z,79.21
2018-07-28T00:54:53.296Z,79.96
2018-07-28T00:57:22.866Z,79.27
2018-07-28T00:59:52.679Z,79.70
2018-07-28T01:02:22.569Z,79.21
2018-07-28T01:04:51.968Z,80.07
2018-07-28T01:07:21.979Z,79.72
2018-07-28T01:09:52.238Z,80.35
2018-07-28T01:12:21.706Z,79.82
2018-07-28T01:14:51.820Z,79.47
2018-07-28T01:17:21.647Z,80.25
2018-07-28T01:19:51.045Z,79.53
2018-07-28T01:22:28.062Z,80.84
2018-07-28T01:24:57.446Z,79.46
2018-07-28T01:27:27.423Z,80.44
2018-07-28T01:29:57.084Z,80.42
2018-07-28T01:32:26.454Z,79.67
2018-07-28T01:34:56.308Z,80.05
2018-07-28T01:37:25.753Z,80.65
2018-07-28T01:39:55.796Z,80.29
2018-07-28T01:42:25.204Z,81.18
2018-07-28T01:44:55.364Z,81.68
2018-07-28T01:47:24.730Z,81.65
2018-07-28T01:49:54.400Z,81.73
2018-07-28T01:52:24.654Z,81.69
2018-07-28T01:54:55.053Z,81.92
2018-07-28T01:57:24.470Z,81.46
2018-07-28T01:59:54.850Z,80.69
2018-07-28T02:02:24.254Z,81.23
2018-07-28T02:04:54.622Z,80.96
2018-07-28T02:07:24.188Z,81.75
2018-07-28T02:09:53.586Z,80.87
2018-07-28T02:12:22.896Z,81.89
2018-07-28T02:14:52.455Z,81.21
2018-07-28T02:17:21.935Z,81.01
2018-07-28T02:19:51.633Z,81.86
2018-07-28T02:22:21.146Z,81.49
2018-07-28T02:24:50.503Z,82.10
2018-07-28T02:27:20.823Z,81.30
2018-07-28T02:29:51.146Z,82.46
2018-07-28T02:32:21.208Z,81.98
2018-07-28T02:34:51.008Z,82.32
2018-07-28T02:37:20.886Z,81.93
2018-07-28T02:39:50.805Z,82.64
2018-07-28T02:42:20.499Z,82.17
2018-07-28T02:44:50.341Z,82.19
2018-07-28T02:47:20.430Z,82.41
2018-07-28T02:49:50.069Z,82.44
2018-07-28T02:52:19.882Z,82.07
2018-07-28T02:54:49.592Z,82.81
2018-07-28T02:57:19.334Z,82.87
2018-07-28T02:59:51.510Z,83.92
2018-07-28T03:02:21.188Z,83.71
2018-07-28T03:04:51.509Z,83.12
2018-07-28T03:07:21.202Z,83.90
2018-07-28T03:09:51.584Z,83.53
2018-07-28T03:12:21.177Z,84.68
2018-07-28T03:14:50.891Z,84.59
2018-07-28T03:17:20.710Z,83.66
2018-07-28T03:19:50.002Z,83.72
2018-07-28T03:22:19.504Z,84.12
2018-07-28T03:24:48.969Z,85.11
2018-07-28T03:27:18.808Z,85.42
2018-07-28T03:29:49.482Z,84.74
2018-07-28T03:32:19.376Z,84.75
2018-07-28T03:34:49.495Z,84.61
2018-07-28T03:37:21.288Z,84.46
2018-07-28T03:39:51.328Z,84.43
2018-07-28T03:42:21.423Z,84.30
2018-07-28T03:44:53.064Z,83.90
2018-07-28T03:47:22.367Z,84.29
2018-07-28T03:49:52.207Z,85.19
2018-07-28T03:52:21.974Z,84.79
2018-07-28T03:54:51.533Z,85.26
2018-07-28T03:57:21.757Z,85.41
2018-07-28T03:59:51.461Z,85.42
2018-07-28T04:02:21.048Z,84.37
2018-07-28T04:04:51.183Z,85.25
2018-07-28T04:07:21.768Z,84.73
2018-07-28T04:09:51.411Z,85.44
2018-07-28T04:12:21.346Z,84.83
2018-07-28T04:14:51.075Z,85.90
2018-07-28T04:17:20.760Z,86.14
2018-07-28T04:19:50.638Z,85.90
2018-07-28T04:22:19.990Z,85.49
2018-07-28T04:24:49.555Z,85.21
2018-07-28T04:27:18.897Z,85.25
2018-07-28T04:29:49.152Z,85.06
2018-07-28T04:32:18.819Z,84.81
2018-07-28T04:34:48.444Z,85.83
2018-07-28T04:37:18.382Z,85.04
2018-07-28T04:39:48.075Z,84.71
2018-07-28T04:42:17.848Z,85.25
2018-07-28T04:44:47.775Z,85.83
2018-07-28T04:47:17.468Z,84.81
2018-07-28T04:49:47.103Z,85.69
2018-07-28T04:52:16.771Z,85.40
2018-07-28T04:54:46.713Z,85.23
2018-07-28T04:57:18.181Z,85.57
2018-07-28T04:59:48.081Z,84.82
2018-07-28T05:02:17.790Z,84.67
2018-07-28T05:04:48.957Z,85.49
2018-07-28T05:07:18.574Z,85.73
2018-07-28T05:09:48.321Z,85.38
2018-07-28T05:12:19.608Z,84.70
2018-07-28T05:14:49.225Z,85.16
2018-07-28T05:17:18.798Z,84.01
2018-07-28T05:19:49.262Z,83.84
2018-07-28T05:22:18.882Z,84.13
2018-07-28T05:24:48.241Z,84.31
2018-07-28T05:27:18.646Z,82.71
2018-07-28T05:29:48.256Z,82.44
2018-07-28T05:32:18.017Z,81.91
2018-07-28T05:34:47.726Z,82.71
2018-07-28T05:37:17.594Z,82.62
2018-07-28T05:39:48.509Z,81.19
2018-07-28T05:42:18.052Z,80.43
2018-07-28T05:44:48.039Z,80.59
2018-07-28T05:47:17.596Z,80.42
2018-07-28T05:49:47.470Z,80.13
2018-07-28T05:52:17.158Z,79.18
2018-07-28T05:54:46.878Z,78.86
2018-07-28T05:57:18.347Z,79.33
2018-07-28T05:59:48.167Z,77.87
2018-07-28T06:02:17.740Z,78.03
2018-07-28T06:04:47.699Z,78.37
2018-07-28T06:07:17.532Z,77.77
2018-07-28T06:09:47.651Z,76.85
2018-07-28T06:12:17.625Z,77.41
2018-07-28T06:14:49.022Z,77.00
2018-07-28T06:17:18.786Z,76.28
2018-07-28T06:19:53.355Z,75.58
2018-07-28T06:22:23.841Z,75.13
2018-07-28T06:24:54.328Z,75.04
2018-07-28T06:27:23.677Z,74.35
2018-07-28T06:29:54.164Z,75.06
2018-07-28T06:32:23.886Z,73.81
2018-07-28T06:34:53.739Z,74.05
2018-07-28T06:37:23.271Z,73.14
2018-07-28T06:39:53.510Z,72.34
2018-07-28T06:42:23.602Z,71.17
2018-07-28T06:44:53.599Z,70.62
2018-07-28T06:47:23.379Z,71.24
2018-07-28T06:49:53.257Z,70.77
2018-07-28T06:52:22.798Z,69.82
2018-07-28T06:54:53.281Z,69.34
2018-07-28T06:57:24.641Z,69.38
2018-07-28T06:59:55.729Z,69.20
2018-07-28T07:02:25.387Z,68.38
2018-07-28T07:04:55.090Z,67.65
2018-07-28T07:07:25.470Z,67.48
2018-07-28T07:09:54.933Z,66.96
2018-07-28T07:12:24.689Z,67.10
2018-07-28T07:14:55.267Z,67.58
2018-07-28T07:17:24.971Z,66.67
2018-07-28T07:20:00.849Z,66.44
2018-07-28T07:22:30.107Z,66.15
2018-07-28T07:24:59.588Z,65.67
2018-07-28T07:27:29.223Z,65.94
2018-07-28T07:29:58.608Z,64.81
2018-07-28T07:32:28.161Z,65.69
2018-07-28T07:34:57.931Z,64.21
2018-07-28T07:37:27.801Z,64.81
2018-07-28T07:39:57.364Z,64.37
2018-07-28T07:42:26.783Z,64.36
2018-07-28T07:44:56.065Z,63.69
2018-07-28T07:47:25.619Z,63.97
2018-07-28T07:49:55.768Z,63.45
2018-07-28T07:52:25.194Z,62.91
2018-07-28T07:54:54.616Z,62.84
2018-07-28T07:57:25.422Z,61.83
2018-07-28T07:59:55.002Z,62.12
2018-07-28T08:02:24.609Z,61.65
2018-07-28T08:04:54.818Z,61.97
2018-07-28T08:07:24.392Z,61.27
2018-07-28T08:09:53.954Z,61.31
2018-07-28T08:12:23.585Z,60.15
2018-07-28T08:14:53.320Z,59.21
2018-07-28T08:17:23.386Z,58.51
2018-07-28T08:19:54.017Z,57.92
2018-07-28T08:22:23.881Z,57.55
2018-07-28T08:24:53.989Z,56.58
2018-07-28T08:27:34.520Z,57.47
2018-07-28T08:30:05.778Z,57.04
2018-07-28T08:32:35.110Z,56.70
2018-07-28T08:35:05.107Z,57.01
2018-07-28T08:37:34.408Z,56.83
2018-07-28T08:40:04.088Z,57.54
2018-07-28T08:42:33.437Z,56.14
2018-07-28T08:45:02.740Z,55.11
2018-07-28T08:47:33.258Z,55.50
2018-07-28T08:50:02.618Z,53.55
2018-07-28T08:52:31.858Z,51.47
2018-07-28T08:55:01.623Z,51.26
2018-07-28T08:57:30.935Z,50.81
2018-07-28T09:00:00.279Z,52.43
2018-07-28T09:02:29.761Z,52.95
2018-07-28T09:04:59.188Z,52.90
2018-07-28T09:07:28.743Z,52.54
2018-07-28T09:09:58.934Z,52.51
2018-07-28T09:12:28.493Z,51.91
2018-07-28T09:14:57.980Z,50.63
2018-07-28T09:17:28.202Z,50.43
2018-07-28T09:19:57.812Z,50.33
2018-07-28T09:22:27.985Z,49.75
2018-07-28T09:24:59.155Z,50.48
2018-07-28T09:27:29.133Z,49.65
2018-07-28T09:29:58.637Z,50.52
2018-07-28T09:32:28.502Z,50.15
2018-07-28T09:34:57.974Z,50.10
2018-07-28T09:37:27.573Z,49.00
2018-07-28T09:39:58.162Z,47.57
2018-07-28T09:42:27.701Z,47.80
2018-07-28T09:44:57.138Z,44.46
2018-07-28T09:47:27.684Z,43.45
2018-07-28T09:49:58.472Z,42.77
2018-07-28T09:52:28.401Z,42.77
2018-07-28T09:54:58.584Z,41.52
2018-07-28T09:57:28.397Z,39.96
2018-07-28T09:59:58.227Z,40.24
2018-07-28T10:02:28.031Z,40.39
2018-07-28T10:04:57.682Z,42.12
2018-07-28T10:07:27.391Z,42.73
2018-07-28T10:09:57.253Z,40.93
2018-07-28T10:12:27.275Z,40.41
2018-07-28T10:14:58.056Z,38.55
2018-07-28T10:17:28.543Z,39.35
2018-07-28T10:19:58.100Z,38.45
2018-07-28T10:22:27.957Z,38.06
2018-07-28T10:24:57.604Z,37.81
2018-07-28T10:27:27.425Z,37.70
2018-07-28T10:29:56.897Z,37.49
2018-07-28T10:32:26.401Z,36.18
2018-07-28T10:34:55.896Z,36.17
2018-07-28T10:37:26.220Z,35.79
2018-07-28T10:39:56.035Z,35.27
2018-07-28T10:42:25.567Z,34.58
2018-07-28T10:44:57.000Z,34.16
2018-07-28T10:47:26.675Z,35.69
2018-07-28T10:49:56.633Z,34.36
2018-07-28T10:52:27.631Z,34.53
2018-07-28T10:54:58.244Z,33.97
2018-07-28T10:57:28.996Z,32.54
2018-07-28T10:59:58.442Z,34.62
2018-07-28T11:02:28.133Z,35.02
2018-07-28T11:04:59.628Z,34.58
2018-07-28T11:07:29.884Z,34.89
2018-07-28T11:09:59.287Z,34.46
2018-07-28T11:12:28.727Z,34.73
2018-07-28T11:14:58.639Z,35.08
2018-07-28T11:17:28.177Z,35.08
2018-07-28T11:19:58.804Z,33.81
2018-07-28T11:22:28.179Z,33.46
2018-07-28T11:24:57.767Z,33.08
2018-07-28T11:27:27.495Z,33.92
2018-07-28T11:29:57.138Z,34.05
2018-07-28T11:32:39.717Z,33.16
2018-07-28T11:35:20.174Z,33.33
2018-07-28T11:38:35.670Z,35.28
2018-07-28T11:41:16.376Z,35.79
2018-07-28T11:43:57.788Z,36.02
2018-07-28T11:46:27.251Z,34.94
2018-07-28T11:48:56.961Z,34.08
2018-07-28T11:51:26.540Z,34.16
2018-07-28T11:53:55.966Z,33.99
2018-07-28T11:56:25.220Z,33.29
2018-07-28T11:58:54.780Z,33.26
2018-07-28T12:01:24.289Z,33.36
2018-07-28T12:03:53.639Z,33.80
2018-07-28T12:06:23.575Z,34.85
2018-07-28T12:08:53.323Z,34.05
2018-07-28T12:11:23.104Z,33.55
2018-07-28T12:13:52.989Z,32.98
2018-07-28T12:16:22.728Z,31.80
2018-07-28T12:18:52.602Z,31.58
2018-07-28T12:21:22.261Z,32.42
2018-07-28T12:23:52.049Z,31.78
2018-07-28T12:26:22.191Z,31.94
2018-07-28T12:28:53.907Z,30.88
2018-07-28T12:31:23.920Z,31.02
2018-07-28T12:33:54.213Z,31.25
2018-07-28T12:36:24.687Z,29.88
2018-07-28T12:38:54.824Z,31.25
2018-07-28T12:41:31.375Z,32.17
2018-07-28T12:44:01.117Z,32.11
2018-07-28T12:46:30.434Z,32.61
2018-07-28T12:49:01.882Z,32.68
2018-07-28T12:51:31.431Z,34.13
2018-07-28T12:54:00.877Z,33.15
2018-07-28T12:56:30.491Z,32.49
2018-07-28T12:59:00.119Z,33.56
2018-07-28T13:01:29.657Z,32.42
2018-07-28T13:03:59.824Z,30.75
2018-07-28T13:06:29.322Z,32.22
2018-07-28T13:08:58.928Z,32.20
2018-07-28T13:11:28.758Z,31.58
2018-07-28T13:13:58.308Z,31.12
2018-07-28T13:16:35.729Z,30.19
2018-07-28T13:19:05.227Z,28.80
2018-07-28T13:21:34.802Z,29.08
2018-07-28T13:24:04.476Z,29.53
2018-07-28T13:26:34.072Z,29.61
2018-07-28T13:29:04.069Z,30.04
2018-07-28T13:31:33.559Z,28.49
2018-07-28T13:34:02.920Z,30.19
2018-07-28T13:36:32.481Z,29.20
2018-07-28T13:39:03.008Z,29.10
2018-07-28T13:41:32.706Z,29.04
2018-07-28T13:44:02.317Z,29.68
2018-07-28T13:46:32.061Z,30.91
2018-07-28T13:49:01.710Z,30.61
2018-07-28T13:51:31.313Z,32.06
2018-07-28T13:54:00.864Z,31.97
2018-07-28T13:56:30.278Z,32.14
2018-07-28T13:58:59.715Z,31.17
2018-07-28T14:01:29.703Z,30.93
2018-07-28T14:03:59.116Z,31.32
2018-07-28T14:06:29.541Z,30.53
2018-07-28T14:08:59.195Z,31.15
2018-07-28T14:11:28.637Z,31.62
2018-07-28T14:13:58.028Z,32.63
2018-07-28T14:16:29.132Z,33.01
2018-07-28T14:18:58.953Z,32.55
2018-07-28T14:21:28.570Z,32.75
2018-07-28T14:23:58.203Z,32.73
2018-07-28T14:26:27.624Z,33.68
2018-07-28T14:28:57.036Z,33.34
2018-07-28T14:31:26.963Z,34.45
2018-07-28T14:33:56.463Z,34.57
2018-07-28T14:36:26.413Z,33.92
2018-07-28T14:38:55.942Z,34.51
2018-07-28T14:41:25.439Z,35.10
2018-07-28T14:43:54.948Z,34.13
2018-07-28T14:46:24.437Z,34.42
2018-07-28T14:48:53.918Z,40.92
2018-07-28T14:51:24.466Z,44.70
2018-07-28T14:53:54.058Z,49.47
2018-07-28T14:56:23.481Z,52.08
2018-07-28T14:58:53.324Z,55.02
2018-07-28T15:01:23.698Z,58.02
2018-07-28T15:03:53.832Z,59.26
2018-07-28T15:06:24.544Z,61.14
2018-07-28T15:08:54.311Z,63.59
2018-07-28T15:11:24.942Z,72.62
2018-07-28T15:13:56.292Z,78.49
2018-07-28T15:16:26.416Z,81.94
2018-07-28T15:18:55.734Z,84.05
2018-07-28T15:21:25.402Z,87.36
2018-07-28T15:23:54.857Z,88.78
2018-07-28T15:26:25.147Z,89.52
2018-07-28T15:28:55.029Z,89.61
2018-07-28T15:31:24.877Z,89.67
2018-07-28T15:33:55.138Z,89.11
2018-07-28T15:36:25.849Z,89.46
2018-07-28T15:38:55.613Z,88.65
2018-07-28T15:41:25.426Z,89.46
2018-07-28T15:43:55.146Z,89.52
2018-07-28T15:46:26.659Z,90.32
2018-07-28T15:48:56.483Z,90.33
2018-07-28T15:51:26.352Z,90.52
2018-07-28T15:53:56.095Z,90.80
2018-07-28T15:56:26.213Z,91.14
2018-07-28T15:58:56.033Z,91.32
2018-07-28T16:01:25.976Z,91.87
2018-07-28T16:03:55.528Z,92.68
2018-07-28T16:06:24.885Z,92.80
2018-07-28T16:08:54.339Z,93.79
2018-07-28T16:11:24.094Z,94.30
2018-07-28T16:13:54.385Z,94.16
2018-07-28T16:16:24.205Z,93.91
2018-07-28T16:18:53.925Z,94.24
2018-07-28T16:21:23.580Z,93.59
2018-07-28T16:23:56.514Z,93.58
2018-07-28T16:26:30.237Z,93.43
2018-07-28T16:29:00.588Z,94.03
2018-07-28T16:31:30.137Z,94.52
2018-07-28T16:34:06.209Z,94.65
2018-07-28T16:36:35.633Z,94.01
2018-07-28T16:39:07.982Z,94.27
2018-07-28T16:41:42.948Z,95.26
2018-07-28T16:44:15.138Z,93.40
2018-07-28T16:46:45.195Z,94.62
2018-07-28T16:49:15.730Z,92.99
2018-07-28T16:51:45.775Z,92.20
2018-07-28T16:54:18.765Z,92.38
2018-07-28T16:56:49.051Z,93.21
2018-07-28T16:59:18.952Z,93.04
2018-07-28T17:01:49.430Z,92.34
2018-07-28T17:04:19.274Z,92.83
2018-07-28T17:06:49.835Z,91.84
2018-07-28T17:09:20.037Z,92.90
2018-07-28T17:11:50.735Z,91.82
2018-07-28T17:14:20.687Z,92.11
2018-07-28T17:16:50.531Z,90.52
2018-07-28T17:19:20.310Z,90.84
2018-07-28T17:21:54.178Z,91.08
2018-07-28T17:24:24.828Z,90.54
2018-07-28T17:26:54.922Z,89.32
2018-07-28T17:29:25.412Z,89.51
2018-07-28T17:31:56.333Z,90.30
2018-07-28T17:36:55.643Z,89.94
2018-07-28T17:39:26.188Z,89.38
2018-07-28T17:41:56.891Z,89.15
2018-07-28T17:44:29.096Z,88.14
2018-07-28T17:46:58.601Z,88.31
2018-07-28T17:49:31.070Z,87.57
2018-07-28T17:52:00.738Z,87.68
2018-07-28T17:54:30.588Z,88.57
2018-07-28T17:57:01.148Z,88.51
2018-07-28T17:59:30.651Z,88.33
2018-07-28T18:02:00.161Z,88.12
2018-07-28T18:04:30.548Z,88.24
2018-07-28T18:07:00.113Z,88.90
2018-07-28T18:09:29.642Z,88.79
2018-07-28T18:11:59.072Z,89.63
2018-07-28T18:14:28.459Z,89.40
2018-07-28T18:16:58.475Z,88.18
2018-07-28T18:21:56.771Z,87.33
2018-07-28T18:24:27.342Z,86.54
2018-07-28T18:26:57.687Z,85.93
2018-07-28T18:29:27.330Z,85.30
2018-07-28T18:31:57.316Z,86.51
2018-07-28T18:34:27.830Z,85.87
2018-07-28T18:36:57.865Z,84.90
2018-07-28T18:39:27.636Z,84.83
2018-07-28T18:41:57.934Z,84.13
2018-07-28T18:44:28.023Z,82.65
2018-07-28T18:46:58.992Z,82.23
2018-07-28T18:49:28.865Z,81.19
2018-07-28T18:51:58.535Z,80.09
2018-07-28T18:54:28.147Z,81.20
2018-07-28T18:56:58.227Z,81.75
2018-07-28T18:59:28.830Z,82.68
2018-07-28T19:01:59.506Z,83.18
2018-07-28T19:04:29.597Z,83.90
2018-07-28T19:06:59.909Z,84.58
2018-07-28T19:09:35.908Z,84.83
2018-07-28T19:12:05.967Z,86.26
2018-07-28T19:14:37.979Z,85.86
2018-07-28T19:17:07.724Z,86.10
2018-07-28T19:19:37.830Z,87.08
2018-07-28T19:22:12.936Z,87.96
2018-07-28T19:24:43.654Z,88.08
2018-07-28T19:27:13.971Z,87.03
2018-07-28T19:29:45.193Z,87.04
2018-07-28T19:32:16.155Z,87.07
2018-07-28T19:34:46.384Z,87.34
2018-07-28T19:37:23.155Z,87.74
2018-07-28T19:39:53.609Z,87.37
2018-07-28T19:42:28.734Z,87.40
2018-07-28T19:44:58.256Z,87.69
2018-07-28T19:47:28.640Z,88.65
2018-07-28T19:49:58.211Z,89.38
2018-07-28T19:52:27.700Z,88.74
2018-07-28T19:54:58.057Z,89.01
2018-07-28T19:57:29.262Z,88.64
2018-07-28T19:59:59.444Z,88.25
2018-07-28T20:02:28.873Z,87.40
2018-07-28T20:04:59.268Z,88.12
2018-07-28T20:07:28.676Z,88.33
2018-07-28T20:09:57.993Z,89.96
2018-07-28T20:12:27.907Z,89.24
2018-07-28T20:14:57.577Z,89.71
2018-07-28T20:17:27.307Z,89.64
2018-07-28T20:19:57.813Z,89.54
2018-07-28T20:22:39.853Z,88.16
2018-07-28T20:25:10.259Z,87.68
2018-07-28T20:27:39.677Z,87.40
2018-07-28T20:30:08.971Z,87.60
2018-07-28T20:32:38.261Z,88.63
2018-07-28T20:35:07.536Z,87.78
2018-07-28T20:37:38.241Z,88.60
2018-07-28T20:40:08.225Z,88.45
2018-07-28T20:42:37.537Z,89.02
2018-07-28T20:45:07.177Z,88.61
2018-07-28T20:47:36.498Z,88.77
2018-07-28T20:50:06.854Z,88.72
2018-07-28T20:52:36.343Z,89.00
2018-07-28T20:55:06.188Z,89.21
2018-07-28T20:57:35.650Z,88.79
2018-07-28T21:00:04.983Z,89.53
2018-07-28T21:02:34.244Z,89.20
2018-07-28T21:05:04.211Z,89.98
2018-07-28T21:07:34.136Z,89.34
2018-07-28T21:10:03.566Z,89.01
2018-07-28T21:12:32.917Z,89.98
2018-07-28T21:15:02.180Z,89.44
2018-07-28T21:17:31.869Z,89.37
2018-07-28T21:20:01.337Z,89.69
2018-07-28T21:22:30.690Z,89.88
2018-07-28T21:25:01.529Z,90.55
2018-07-28T21:27:30.809Z,90.38
2018-07-28T21:30:00.440Z,90.14
2018-07-28T21:32:30.864Z,90.47
2018-07-28T21:35:00.683Z,89.49
2018-07-28T21:37:29.941Z,90.07
2018-07-28T21:40:00.625Z,90.02
2018-07-28T21:42:29.970Z,89.37
2018-07-28T21:45:00.748Z,89.83
2018-07-28T21:47:30.440Z,89.89
2018-07-28T21:49:59.835Z,89.31
2018-07-28T21:52:29.072Z,88.98
2018-07-28T21:54:59.273Z,89.79
2018-07-28T21:57:28.966Z,89.47
2018-07-28T21:59:58.321Z,89.57
2018-07-28T22:02:27.990Z,89.47
2018-07-28T22:04:57.294Z,89.22
2018-07-28T22:07:26.880Z,89.19
2018-07-28T22:09:56.459Z,88.48
2018-07-28T22:12:25.891Z,88.97
2018-07-28T22:14:55.282Z,88.83
2018-07-28T22:17:25.311Z,88.56
2018-07-28T22:19:54.946Z,87.51
2018-07-28T22:22:24.176Z,88.39
2018-07-28T22:24:53.711Z,88.12
2018-07-28T22:27:23.084Z,87.78
2018-07-28T22:29:52.457Z,87.45
2018-07-28T22:32:22.472Z,87.36
2018-07-28T22:34:52.750Z,86.73
2018-07-28T22:37:21.988Z,87.70
2018-07-28T22:39:51.481Z,87.92
2018-07-28T22:42:22.118Z,87.32
2018-07-28T22:44:51.529Z,87.83
2018-07-28T22:47:20.931Z,88.11
2018-07-28T22:49:51.982Z,88.75
2018-07-28T22:52:21.295Z,89.37
2018-07-28T22:54:50.646Z,89.10
2018-07-28T22:57:20.278Z,89.02
2018-07-28T22:59:49.534Z,88.50
2018-07-28T23:02:18.992Z,88.79
2018-07-28T23:04:48.370Z,88.33
2018-07-28T23:07:18.243Z,86.77
2018-07-28T23:09:48.649Z,86.40
2018-07-28T23:12:23.396Z,85.05
2018-07-28T23:14:53.978Z,83.85
2018-07-28T23:17:31.862Z,83.28
2018-07-28T23:20:03.624Z,81.76
2018-07-28T23:22:32.918Z,81.23
2018-07-28T23:25:02.720Z,80.42
2018-07-28T23:27:33.256Z,78.59
2018-07-28T23:32:55.143Z,78.51
2018-07-28T23:35:25.122Z,79.12
2018-07-28T23:37:54.564Z,78.91
2018-07-28T23:40:23.970Z,78.01
2018-07-28T23:42:53.298Z,77.85
2018-07-28T23:45:22.989Z,77.81
2018-07-28T23:47:54.176Z,77.75
2018-07-28T23:50:23.492Z,78.14
2018-07-28T23:52:52.738Z,77.89
2018-07-28T23:55:22.569Z,77.91
2018-07-28T23:57:52.233Z,78.08
